Time;durP1;ratioP1;P1;durP2;ratioP2;P2;SDS_P1;SDS_P2;PMS_P1;PMS_P2;Temp;Humidity;BMP_temperature;BMP_pressure;BME280_temperature;BME280_humidity;BME280_pressure;Samples;Min_cycle;Max_cycle;Signal;HPM_P1;HPM_P2
2021/03/26 00:01:44;;;;;;;24.40;14.48;;;3.40;60.60;;;;;;5032984;28;20120;-74
2021/03/26 00:04:12;;;;;;;25.60;14.13;;;3.40;60.60;;;;;;5032666;28;20464;-74
2021/03/26 00:06:41;;;;;;;23.77;14.75;;;3.40;60.70;;;;;;5048080;28;20112;-74
2021/03/26 00:09:10;;;;;;;26.70;14.25;;;3.40;60.80;;;;;;5031985;28;20021;-74
2021/03/26 00:11:38;;;;;;;25.05;15.07;;;3.40;60.80;;;;;;5032463;28;20022;-74
2021/03/26 00:14:04;;;;;;;21.92;13.57;;;3.40;60.80;;;;;;5047829;28;20383;-74
2021/03/26 00:16:30;;;;;;;21.73;13.45;;;3.40;60.90;;;;;;5048279;28;20030;-74
2021/03/26 00:18:55;;;;;;;30.13;14.27;;;3.30;60.90;;;;;;5047361;28;20033;-73
2021/03/26 00:21:23;;;;;;;28.05;14.88;;;3.30;60.90;;;;;;5032493;28;20034;-74
2021/03/26 00:23:49;;;;;;;23.85;13.77;;;3.30;61.00;;;;;;5031155;28;20041;-74
2021/03/26 00:26:15;;;;;;;26.00;14.27;;;3.30;61.10;;;;;;5032127;28;20049;-74
2021/03/26 00:28:41;;;;;;;26.35;13.60;;;3.30;61.10;;;;;;5032498;28;20029;-73
2021/03/26 00:31:07;;;;;;;24.88;13.52;;;3.20;61.10;;;;;;5031973;28;20037;-74
2021/03/26 00:33:33;;;;;;;22.98;13.50;;;3.20;61.00;;;;;;5031348;28;20522;-74
2021/03/26 00:35:59;;;;;;;20.48;13.25;;;3.20;61.20;;;;;;5032578;28;20049;-74
2021/03/26 00:38:25;;;;;;;23.83;13.70;;;3.20;61.20;;;;;;5031954;28;20038;-74
2021/03/26 00:40:52;;;;;;;23.35;12.20;;;3.20;61.10;;;;;;5032222;28;20112;-73
2021/03/26 00:43:18;;;;;;;22.48;12.98;;;3.20;61.20;;;;;;5031727;28;20487;-74
2021/03/26 00:45:43;;;;;;;23.45;13.25;;;3.20;61.10;;;;;;5032695;28;20420;-74
2021/03/26 00:48:10;;;;;;;27.63;13.80;;;3.20;61.10;;;;;;5033173;28;20037;-74
2021/03/26 00:51:23;;;;;;;24.83;13.18;;;3.10;61.20;;;;;;5051551;28;20083;-74
2021/03/26 00:54:01;;;;;;;24.45;13.32;;;3.10;61.20;;;;;;5036548;28;20064;-74
2021/03/26 00:56:28;;;;;;;32.05;16.58;;;3.10;61.30;;;;;;5038785;28;20049;-74
2021/03/26 00:58:54;;;;;;;26.92;15.52;;;3.00;61.30;;;;;;5038511;28;20118;-74
2021/03/26 01:01:23;;;;;;;28.38;14.88;;;3.00;61.40;;;;;;5038882;28;20048;-73
2021/03/26 01:03:49;;;;;;;26.73;14.13;;;2.90;61.50;;;;;;5038596;28;20018;-74
2021/03/26 01:06:16;;;;;;;27.33;14.48;;;2.90;61.70;;;;;;5053393;28;20372;-73
2021/03/26 01:08:42;;;;;;;29.88;16.13;;;2.80;61.70;;;;;;5052464;28;20037;-74
2021/03/26 01:11:18;;;;;;;28.80;14.95;;;2.80;61.80;;;;;;5041403;28;20052;-74
2021/03/26 01:13:44;;;;;;;25.60;14.75;;;2.80;61.90;;;;;;5037082;28;20029;-74
2021/03/26 01:16:13;;;;;;;23.55;14.07;;;2.80;62.00;;;;;;5041201;28;20021;-74
2021/03/26 01:18:42;;;;;;;24.58;13.77;;;2.70;62.10;;;;;;5031020;28;20152;-74
2021/03/26 01:21:11;;;;;;;22.30;13.30;;;2.80;62.20;;;;;;5047993;28;20464;-74
2021/03/26 01:23:37;;;;;;;21.95;12.80;;;2.80;62.10;;;;;;5024582;28;20353;-74
2021/03/26 01:26:05;;;;;;;22.92;13.82;;;2.80;62.10;;;;;;5031957;28;20030;-74
2021/03/26 01:28:31;;;;;;;23.50;14.23;;;2.80;62.60;;;;;;5050600;28;20065;-73
2021/03/26 01:30:58;;;;;;;24.38;12.75;;;2.80;62.00;;;;;;5034846;28;20112;-74
2021/03/26 01:33:24;;;;;;;22.63;13.13;;;2.80;62.00;;;;;;5050249;28;20041;-74
2021/03/26 01:35:51;;;;;;;25.13;13.65;;;2.80;62.00;;;;;;5033769;28;20037;-74
2021/03/26 01:38:17;;;;;;;24.40;14.52;;;2.80;61.90;;;;;;5035062;28;20077;-74
2021/03/26 01:40:50;;;;;;;21.83;13.43;;;2.80;62.00;;;;;;5050474;28;20025;-74
2021/03/26 01:43:26;;;;;;;24.35;13.95;;;2.80;62.10;;;;;;5050012;28;20026;-73
2021/03/26 01:45:53;;;;;;;24.20;14.07;;;2.80;62.00;;;;;;5050531;28;20041;-73
2021/03/26 01:48:34;;;;;;;23.30;13.40;;;2.80;62.00;;;;;;5034655;28;20028;-74
2021/03/26 01:51:02;;;;;;;24.15;13.30;;;2.80;62.00;;;;;;5047142;28;20137;-73
2021/03/26 01:53:28;;;;;;;22.50;12.95;;;2.70;62.00;;;;;;5012738;28;20022;-73
2021/03/26 01:55:56;;;;;;;23.58;13.23;;;2.70;62.00;;;;;;5014885;28;20022;-74
2021/03/26 01:58:25;;;;;;;23.33;13.25;;;2.70;62.00;;;;;;5013796;28;20033;-73
2021/03/26 02:00:57;;;;;;;27.00;13.75;;;2.70;62.10;;;;;;5014843;28;20488;-73
2021/03/26 02:03:28;;;;;;;24.75;13.07;;;2.70;62.00;;;;;;5013689;28;20496;-73
2021/03/26 02:06:01;;;;;;;23.52;13.27;;;2.70;62.00;;;;;;5019285;28;20025;-72
2021/03/26 02:08:32;;;;;;;22.27;13.65;;;2.70;61.90;;;;;;5029692;28;20659;-73
2021/03/26 02:11:07;;;;;;;25.90;13.88;;;2.70;62.00;;;;;;5013379;28;20057;-73
2021/03/26 02:13:35;;;;;;;22.80;13.80;;;2.70;62.00;;;;;;5012713;28;20022;-73
2021/03/26 02:16:07;;;;;;;26.00;14.25;;;2.70;61.90;;;;;;5014720;28;20040;-73
2021/03/26 02:18:39;;;;;;;31.35;14.85;;;2.70;62.00;;;;;;5014392;28;20029;-74
2021/03/26 02:21:13;;;;;;;27.65;14.50;;;2.70;62.00;;;;;;5013519;28;20037;-73
2021/03/26 02:23:42;;;;;;;25.90;14.57;;;2.70;62.10;;;;;;5014784;28;20491;-73
2021/03/26 02:26:36;;;;;;;24.85;14.75;;;2.70;62.10;;;;;;5014356;28;20488;-73
2021/03/26 02:29:22;;;;;;;26.77;14.40;;;2.70;62.10;;;;;;5013987;28;20029;-73
2021/03/26 02:31:55;;;;;;;26.83;13.98;;;2.60;62.10;;;;;;5024993;28;20029;-73
2021/03/26 02:34:23;;;;;;;24.92;14.73;;;2.60;62.20;;;;;;5032451;28;20053;-72
2021/03/26 02:36:53;;;;;;;27.33;14.85;;;2.60;62.20;;;;;;5013107;28;20057;-73
2021/03/26 02:39:37;;;;;;;25.27;13.80;;;2.60;62.20;;;;;;5015166;28;20029;-72
2021/03/26 02:42:09;;;;;;;25.27;13.52;;;2.50;62.10;;;;;;5034313;28;20032;-72
2021/03/26 02:45:13;;;;;;;22.20;12.55;;;2.50;62.20;;;;;;5018065;28;20124;-75
2021/03/26 02:47:42;;;;;;;28.80;16.73;;;2.60;62.20;;;;;;5027584;28;20041;-74
2021/03/26 02:50:20;;;;;;;23.90;12.32;;;2.50;62.00;;;;;;5034225;28;20025;-74
2021/03/26 02:53:04;;;;;;;24.88;13.95;;;2.60;62.10;;;;;;5018560;28;20372;-75
2021/03/26 02:55:49;;;;;;;23.67;13.23;;;2.60;62.00;;;;;;5027322;28;20053;-74
2021/03/26 02:58:29;;;;;;;22.38;13.43;;;2.60;62.00;;;;;;5036803;28;20029;-74
2021/03/26 03:00:59;;;;;;;24.75;13.73;;;2.60;61.90;;;;;;5020359;28;20361;-75
2021/03/26 03:03:30;;;;;;;24.67;14.60;;;2.60;61.80;;;;;;5014904;28;20022;-74
2021/03/26 03:06:02;;;;;;;25.10;14.27;;;2.60;61.90;;;;;;5012694;28;20060;-74
2021/03/26 03:08:32;;;;;;;26.63;14.32;;;2.50;61.80;;;;;;5012591;28;20025;-75
2021/03/26 03:11:09;;;;;;;24.20;13.57;;;2.50;61.80;;;;;;5028245;28;20513;-74
2021/03/26 03:13:47;;;;;;;27.38;15.35;;;2.50;61.80;;;;;;5013541;28;20026;-75
2021/03/26 03:16:26;;;;;;;26.73;15.50;;;2.50;62.00;;;;;;5012547;28;20037;-75
2021/03/26 03:19:01;;;;;;;26.58;15.05;;;2.40;62.00;;;;;;5013448;28;20148;-74
2021/03/26 03:21:43;;;;;;;27.63;16.23;;;2.40;62.10;;;;;;5012237;28;20065;-74
2021/03/26 03:24:12;;;;;;;25.92;15.40;;;2.30;62.10;;;;;;5029004;28;20037;-74
2021/03/26 03:26:47;;;;;;;27.77;15.18;;;2.30;62.10;;;;;;5012204;28;20022;-75
2021/03/26 03:29:31;;;;;;;24.67;14.25;;;2.30;62.30;;;;;;5013011;28;20503;-75
2021/03/26 03:32:11;;;;;;;28.55;15.50;;;2.30;62.30;;;;;;5013185;28;20491;-75
2021/03/26 03:34:40;;;;;;;25.80;15.68;;;2.30;62.40;;;;;;5013878;28;20030;-74
2021/03/26 03:37:26;;;;;;;23.13;15.38;;;2.30;62.40;;;;;;5027768;28;20064;-75
2021/03/26 03:39:58;;;;;;;26.85;15.55;;;2.20;62.40;;;;;;5028626;28;20029;-74
2021/03/26 03:42:45;;;;;;;34.20;16.63;;;2.20;62.50;;;;;;5012863;28;20030;-74
2021/03/26 03:45:24;;;;;;;30.58;16.33;;;2.20;62.60;;;;;;5013070;28;20034;-75
2021/03/26 03:47:56;;;;;;;28.98;15.52;;;2.20;62.60;;;;;;5011830;28;20033;-74
2021/03/26 03:50:25;;;;;;;27.33;16.00;;;2.20;62.70;;;;;;5028517;28;20025;-74
2021/03/26 03:52:59;;;;;;;28.10;16.05;;;2.20;62.80;;;;;;5028114;28;20030;-74
2021/03/26 03:55:46;;;;;;;29.23;15.68;;;2.20;62.90;;;;;;5020011;28;20026;-74
2021/03/26 03:58:26;;;;;;;27.88;15.60;;;2.30;63.00;;;;;;5011927;28;20507;-75
2021/03/26 04:01:03;;;;;;;27.42;16.25;;;2.30;63.00;;;;;;5042338;28;20046;-75
2021/03/26 04:03:51;;;;;;;25.58;15.55;;;2.40;63.00;;;;;;5044305;28;20076;-75
2021/03/26 04:06:30;;;;;;;26.52;16.08;;;2.40;62.90;;;;;;5028582;28;20036;-74
2021/03/26 04:09:05;;;;;;;32.58;17.15;;;2.60;63.10;;;;;;5027955;28;20080;-74
2021/03/26 04:11:39;;;;;;;26.92;16.13;;;2.90;63.60;;;;;;5028005;28;20134;-74
2021/03/26 04:14:28;;;;;;;27.70;15.88;;;3.30;63.90;;;;;;5011986;28;20057;-75
2021/03/26 04:17:32;;;;;;;31.88;17.30;;;3.70;63.70;;;;;;5014539;28;20552;-75
2021/03/26 04:20:05;;;;;;;32.63;17.48;;;4.20;63.10;;;;;;5012967;28;20034;-74
2021/03/26 04:22:38;;;;;;;36.55;18.88;;;4.70;63.10;;;;;;5015087;28;20029;-74
2021/03/26 04:25:19;;;;;;;35.20;19.65;;;5.20;62.90;;;;;;5030854;28;20021;-74
2021/03/26 04:27:46;;;;;;;43.70;21.05;;;5.70;62.10;;;;;;5017280;28;20406;-74
2021/03/26 04:30:18;;;;;;;42.28;21.50;;;6.20;61.80;;;;;;5016715;28;20026;-74
2021/03/26 04:32:44;;;;;;;39.13;21.30;;;6.60;60.80;;;;;;5032821;28;20539;-74
2021/03/26 04:35:12;;;;;;;32.47;18.90;;;7.00;60.00;;;;;;5049462;28;20492;-74
2021/03/26 04:38:09;;;;;;;39.85;22.77;;;7.40;59.00;;;;;;5036472;28;20396;-74
2021/03/26 04:40:42;;;;;;;65.93;30.33;;;7.80;57.10;;;;;;5038408;28;20026;-75
2021/03/26 04:43:27;;;;;;;66.68;30.23;;;8.10;56.40;;;;;;5019409;28;20030;-74
2021/03/26 04:46:10;;;;;;;60.00;27.85;;;8.40;54.60;;;;;;5016810;28;20030;-74
2021/03/26 04:48:52;;;;;;;54.33;26.95;;;8.80;54.00;;;;;;5032960;28;20032;-75
2021/03/26 04:51:22;;;;;;;41.20;22.98;;;9.20;53.30;;;;;;5015977;28;20050;-75
2021/03/26 04:54:06;;;;;;;44.45;23.38;;;9.50;52.10;;;;;;5031766;28;20022;-75
2021/03/26 04:56:38;;;;;;;35.25;22.13;;;9.90;51.20;;;;;;5031482;28;20107;-75
2021/03/26 04:59:07;;;;;;;32.28;19.63;;;10.40;50.50;;;;;;5031082;28;20136;-75
2021/03/26 05:01:34;;;;;;;33.60;19.77;;;10.70;49.90;;;;;;5015910;28;20057;-74
2021/03/26 05:04:22;;;;;;;33.08;19.63;;;11.00;49.40;;;;;;5016197;28;20372;-75
2021/03/26 05:07:02;;;;;;;38.00;21.85;;;11.40;48.00;;;;;;5016123;28;20049;-75
2021/03/26 05:09:39;;;;;;;39.03;23.40;;;11.80;47.30;;;;;;5031183;28;20488;-75
2021/03/26 05:12:10;;;;;;;34.13;21.15;;;12.10;46.60;;;;;;5015921;28;20018;-75
2021/03/26 05:14:50;;;;;;;37.50;21.65;;;12.50;45.60;;;;;;5016267;28;20030;-75
2021/03/26 05:17:18;;;;;;;42.67;23.45;;;12.70;44.40;;;;;;5015498;28;20029;-75
2021/03/26 05:20:09;;;;;;;66.03;28.48;;;12.90;44.50;;;;;;5015839;28;20069;-75
2021/03/26 05:22:59;;;;;;;48.42;25.50;;;13.10;43.40;;;;;;5016015;28;20030;-76
2021/03/26 05:25:36;;;;;;;51.80;26.20;;;13.40;43.10;;;;;;5014517;28;20476;-75
2021/03/26 05:28:07;;;;;;;55.55;26.75;;;13.70;42.30;;;;;;5015811;28;20048;-75
2021/03/26 05:30:39;;;;;;;42.22;22.05;;;13.80;41.30;;;;;;5015348;28;20064;-76
2021/03/26 05:33:35;;;;;;;38.58;20.05;;;13.90;40.90;;;;;;5024704;28;20575;-76
2021/03/26 05:36:05;;;;;;;34.80;18.58;;;14.20;40.50;;;;;;5028172;28;20041;-76
2021/03/26 05:38:40;;;;;;;34.63;19.83;;;14.30;40.30;;;;;;5045092;28;20038;-75
2021/03/26 05:41:24;;;;;;;40.45;22.65;;;14.50;39.50;;;;;;5034443;28;20033;-76
2021/03/26 05:44:24;;;;;;;40.65;24.20;;;14.70;39.20;;;;;;5029250;28;20025;-75
2021/03/26 05:46:57;;;;;;;31.75;18.67;;;14.70;38.50;;;;;;5027959;28;20025;-76
2021/03/26 05:49:29;;;;;;;37.72;21.33;;;14.90;38.30;;;;;;5034616;28;20026;-75
2021/03/26 05:52:18;;;;;;;36.30;21.30;;;15.20;38.50;;;;;;5049989;28;20021;-75
2021/03/26 05:55:02;;;;;;;36.72;23.10;;;15.40;37.50;;;;;;5034700;28;20017;-76
2021/03/26 05:57:55;;;;;;;33.70;21.67;;;15.70;37.50;;;;;;5028390;28;20034;-76
2021/03/26 06:00:43;;;;;;;33.10;22.35;;;16.00;37.10;;;;;;5043617;28;20033;-76
2021/03/26 06:03:20;;;;;;;33.83;21.05;;;16.20;36.50;;;;;;5030016;28;20151;-76
2021/03/26 06:06:22;;;;;;;35.28;21.63;;;16.40;35.90;;;;;;5025794;28;20488;-76
2021/03/26 06:09:06;;;;;;;35.95;22.30;;;16.50;35.70;;;;;;5020478;28;20456;-76
2021/03/26 06:11:53;;;;;;;28.98;19.88;;;16.80;35.50;;;;;;5020638;28;20030;-76
2021/03/26 06:14:33;;;;;;;30.48;19.90;;;16.80;34.80;;;;;;5033206;28;20487;-75
2021/03/26 06:17:05;;;;;;;26.20;16.75;;;16.90;35.10;;;;;;5031070;28;20026;-75
2021/03/26 06:19:47;;;;;;;31.00;18.00;;;17.00;34.70;;;;;;5024107;28;20129;-76
2021/03/26 06:22:31;;;;;;;25.95;17.08;;;17.20;34.40;;;;;;5034808;28;20026;-75
2021/03/26 06:25:17;;;;;;;24.67;17.08;;;17.50;34.30;;;;;;5036943;28;20026;-76
2021/03/26 06:28:00;;;;;;;31.60;17.90;;;17.80;33.70;;;;;;5017787;28;20029;-72
2021/03/26 06:30:36;;;;;;;31.70;18.70;;;18.10;33.60;;;;;;5033839;28;20022;-72
2021/03/26 06:33:14;;;;;;;29.13;18.85;;;18.10;33.00;;;;;;5015958;28;20041;-72
2021/03/26 06:36:17;;;;;;;29.23;18.20;;;18.30;32.70;;;;;;5029243;28;20057;-73
2021/03/26 06:39:04;;;;;;;28.08;18.95;;;18.30;32.70;;;;;;5013531;28;20034;-74
2021/03/26 06:41:57;;;;;;;24.00;16.45;;;18.40;32.70;;;;;;5045573;28;20032;-73
2021/03/26 06:44:44;;;;;;;25.02;16.08;;;18.50;32.60;;;;;;5032659;28;20415;-74
2021/03/26 06:47:51;;;;;;;23.92;16.35;;;18.70;32.00;;;;;;5026864;28;20049;-70
2021/03/26 06:50:38;;;;;;;25.33;15.88;;;18.70;32.00;;;;;;5013328;28;20040;-75
2021/03/26 06:53:40;;;;;;;23.02;15.93;;;18.80;32.00;;;;;;5023930;28;20030;-74
2021/03/26 06:56:23;;;;;;;26.58;17.15;;;18.90;31.80;;;;;;5030375;28;20029;-73
2021/03/26 06:59:15;;;;;;;29.48;16.73;;;19.00;31.60;;;;;;5044289;28;20036;-73
2021/03/26 07:02:20;;;;;;;22.88;15.75;;;19.00;31.40;;;;;;5015686;28;20029;-74
2021/03/26 07:05:11;;;;;;;25.85;15.52;;;19.10;31.30;;;;;;5033422;28;20034;-75
2021/03/26 07:08:03;;;;;;;23.65;15.75;;;19.20;32.00;;;;;;5029703;28;20064;-74
2021/03/26 07:10:52;;;;;;;23.15;15.80;;;19.20;31.00;;;;;;5035618;28;20443;-74
2021/03/26 07:13:21;;;;;;;24.73;15.30;;;19.20;31.00;;;;;;5017277;28;20037;-73
2021/03/26 07:15:59;;;;;;;23.77;16.45;;;19.20;31.10;;;;;;5031355;28;20112;-74
2021/03/26 07:18:58;;;;;;;22.33;15.65;;;19.40;31.10;;;;;;5013217;28;20078;-74
2021/03/26 07:21:27;;;;;;;21.95;14.27;;;19.70;31.30;;;;;;5018792;28;20104;-76
2021/03/26 07:24:27;;;;;;;22.23;15.02;;;20.00;30.50;;;;;;5034053;28;20065;-74
2021/03/26 07:26:56;;;;;;;22.83;14.82;;;20.00;30.40;;;;;;5041215;28;20120;-76
2021/03/26 07:29:43;;;;;;;23.90;14.13;;;20.30;30.50;;;;;;5027848;28;20033;-77
2021/03/26 07:32:21;;;;;;;24.23;15.55;;;20.30;30.30;;;;;;5022479;28;20028;-76
2021/03/26 07:35:24;;;;;;;23.70;14.57;;;20.60;30.30;;;;;;5048110;28;20041;-76
2021/03/26 07:38:09;;;;;;;23.60;15.30;;;20.60;30.00;;;;;;5023456;28;20255;-75
2021/03/26 07:41:16;;;;;;;21.45;13.05;;;20.70;29.90;;;;;;5037893;28;20033;-74
2021/03/26 07:44:00;;;;;;;18.40;13.30;;;21.00;29.90;;;;;;5034665;28;20033;-74
2021/03/26 07:46:47;;;;;;;19.38;12.20;;;21.30;29.60;;;;;;5025376;28;20029;-73
2021/03/26 07:49:50;;;;;;;15.13;11.57;;;21.30;29.20;;;;;;5036147;28;20041;-74
2021/03/26 07:52:40;;;;;;;20.80;12.35;;;21.40;29.00;;;;;;5039056;28;20470;-73
2021/03/26 07:55:20;;;;;;;18.25;12.23;;;21.80;29.10;;;;;;5029315;28;20476;-75
2021/03/26 07:58:05;;;;;;;20.55;13.48;;;22.10;28.70;;;;;;5027738;28;20399;-76
2021/03/26 08:00:50;;;;;;;17.20;11.05;;;22.10;28.60;;;;;;5033713;28;20037;-76
2021/03/26 08:03:31;;;;;;;17.50;11.05;;;22.20;28.40;;;;;;5034688;28;20060;-72
2021/03/26 08:06:14;;;;;;;20.65;11.77;;;22.50;28.20;;;;;;5028261;28;20041;-73
2021/03/26 08:09:09;;;;;;;21.40;12.45;;;22.70;28.20;;;;;;5031057;28;20045;-73
2021/03/26 08:11:57;;;;;;;19.17;11.48;;;23.00;27.90;;;;;;5039322;28;20068;-72
2021/03/26 08:14:38;;;;;;;16.02;10.63;;;23.00;27.60;;;;;;5038493;28;20053;-70
2021/03/26 08:17:22;;;;;;;17.45;11.07;;;22.80;27.30;;;;;;5050576;28;20030;-73
2021/03/26 08:20:13;;;;;;;19.63;11.40;;;22.70;27.50;;;;;;5020863;28;20033;-72
2021/03/26 08:23:03;;;;;;;16.48;11.23;;;22.80;27.60;;;;;;5030806;28;20030;-73
2021/03/26 08:25:57;;;;;;;17.35;11.27;;;22.80;27.50;;;;;;5028434;28;20025;-73
2021/03/26 08:28:41;;;;;;;14.77;10.82;;;22.90;27.40;;;;;;5035126;28;20041;-73
2021/03/26 08:31:44;;;;;;;17.58;12.10;;;22.90;27.10;;;;;;5021976;28;20036;-72
2021/03/26 08:34:16;;;;;;;18.25;11.38;;;23.20;27.30;;;;;;5042644;28;20037;-73
2021/03/26 08:37:12;;;;;;;17.13;11.40;;;23.50;27.40;;;;;;5041001;28;20073;-74
2021/03/26 08:40:22;;;;;;;15.20;10.02;;;23.80;27.20;;;;;;5042369;28;20392;-74
2021/03/26 08:42:50;;;;;;;13.93;9.70;;;23.80;27.20;;;;;;5019847;28;20030;-74
2021/03/26 08:45:21;;;;;;;14.65;10.05;;;23.80;26.70;;;;;;5010078;28;20558;-73
2021/03/26 08:48:19;;;;;;;15.07;9.98;;;23.50;26.40;;;;;;5028425;28;20127;-73
2021/03/26 08:50:57;;;;;;;12.95;8.93;;;23.30;26.70;;;;;;5004874;28;20539;-73
2021/03/26 08:53:53;;;;;;;16.05;9.80;;;23.20;26.90;;;;;;5028359;28;20034;-73
2021/03/26 08:56:47;;;;;;;12.30;8.88;;;23.00;26.80;;;;;;5042026;28;20025;-67
2021/03/26 08:59:46;;;;;;;15.18;9.68;;;23.10;26.90;;;;;;5030278;28;20069;-73
2021/03/26 09:02:37;;;;;;;15.35;9.85;;;23.40;27.40;;;;;;5029474;28;20384;-74
2021/03/26 09:05:40;;;;;;;13.93;9.68;;;23.80;27.20;;;;;;5028557;28;20126;-73
2021/03/26 09:08:22;;;;;;;14.32;7.90;;;23.90;27.10;;;;;;5025722;28;20046;-68
2021/03/26 09:11:08;;;;;;;11.85;7.93;;;24.10;27.00;;;;;;5032957;28;20025;-66
2021/03/26 09:13:41;;;;;;;12.23;8.68;;;24.20;26.80;;;;;;5044469;28;20034;-66
2021/03/26 09:16:16;;;;;;;14.70;9.57;;;24.30;26.90;;;;;;5043938;28;20068;-65
2021/03/26 09:19:14;;;;;;;12.10;8.10;;;24.30;26.70;;;;;;5033935;28;20446;-65
2021/03/26 09:21:53;;;;;;;10.63;7.03;;;24.20;26.70;;;;;;5023826;28;20037;-66
2021/03/26 09:24:38;;;;;;;11.32;7.30;;;23.80;26.90;;;;;;5027542;28;20030;-66
2021/03/26 09:27:17;;;;;;;;;;;23.90;27.10;;;;;;5030539;28;20022;-66
2021/03/26 09:30:09;;;;;;;10.70;7.78;;;24.00;27.50;;;;;;5034578;28;20011;-66
2021/03/26 09:32:37;;;;;;;14.88;9.50;;;24.10;27.10;;;;;;5027861;28;20029;-67
2021/03/26 09:35:05;;;;;;;13.80;8.85;;;24.20;27.20;;;;;;5026517;28;20038;-67
2021/03/26 09:38:06;;;;;;;13.63;7.47;;;24.40;27.20;;;;;;5031205;28;20053;-72
2021/03/26 09:40:47;;;;;;;13.27;7.35;;;24.60;27.00;;;;;;5010371;28;20468;-80
2021/03/26 09:43:42;;;;;;;15.15;9.25;;;24.50;26.80;;;;;;5058908;28;20037;-74
2021/03/26 09:46:37;;;;;;;14.10;8.55;;;24.40;26.70;;;;;;5050773;28;20029;-76
2021/03/26 09:49:24;;;;;;;11.63;7.13;;;24.40;27.00;;;;;;5031233;28;20058;-74
2021/03/26 09:52:29;;;;;;;8.68;6.75;;;24.50;26.90;;;;;;5027865;28;20137;-76
2021/03/26 09:55:24;;;;;;;12.63;8.40;;;24.40;26.80;;;;;;5026946;28;20098;-77
2021/03/26 09:58:10;;;;;;;14.25;8.88;;;24.30;27.10;;;;;;5044490;28;20395;-71
2021/03/26 10:00:43;;;;;;;17.27;10.23;;;24.50;27.20;;;;;;5034759;28;20036;-76
2021/03/26 10:03:12;;;;;;;13.40;8.25;;;24.40;27.00;;;;;;5023891;28;20049;-77
2021/03/26 10:05:42;;;;;;;9.60;5.95;;;24.40;27.20;;;;;;5031114;28;20033;-70
2021/03/26 10:11:33;;;;;;;13.48;7.50;;;24.60;27.40;;;;;;5019890;28;20033;-78
2021/03/26 10:14:20;;;;;;;11.82;7.53;;;24.70;27.10;;;;;;5023639;28;20053;-84
2021/03/26 10:16:51;;;;;;;12.00;7.95;;;24.50;27.20;;;;;;5047367;28;20055;-76
2021/03/26 10:19:28;;;;;;;9.50;6.20;;;24.50;27.20;;;;;;5047210;28;20116;-77
2021/03/26 10:21:59;;;;;;;8.10;6.18;;;24.60;27.30;;;;;;5028924;28;20018;-74
2021/03/26 10:24:36;;;;;;;9.18;5.88;;;24.60;27.10;;;;;;5023110;28;20084;-77
2021/03/26 10:27:26;;;;;;;12.65;6.85;;;24.40;27.10;;;;;;5026214;28;20190;-77
2021/03/26 10:30:32;;;;;;;9.88;6.55;;;24.30;27.70;;;;;;5030054;28;20121;-76
2021/03/26 10:33:22;;;;;;;9.45;4.93;;;24.40;27.40;;;;;;5008042;28;20060;-80
2021/03/26 10:36:22;;;;;;;8.85;5.25;;;24.20;27.30;;;;;;5017030;28;20496;-78
2021/03/26 10:39:17;;;;;;;8.20;4.85;;;23.90;27.40;;;;;;5033177;28;20037;-79
2021/03/26 10:42:20;;;;;;;9.97;4.40;;;23.60;27.60;;;;;;5030929;28;20022;-78
2021/03/26 10:45:44;;;;;;;7.55;4.20;;;23.50;27.60;;;;;;5047201;28;21492;-72
2021/03/26 10:48:31;;;;;;;8.68;4.00;;;23.60;27.70;;;;;;5008507;28;20034;-78
2021/03/26 10:51:08;;;;;;;8.65;4.38;;;23.60;27.80;;;;;;4991435;28;20029;-79
2021/03/26 10:53:44;;;;;;;8.48;4.47;;;23.60;28.00;;;;;;5025972;28;20034;-76
2021/03/26 10:56:35;;;;;;;8.52;4.28;;;23.60;27.80;;;;;;5027105;28;20025;-77
2021/03/26 10:59:16;;;;;;;9.10;4.43;;;23.40;27.70;;;;;;5028832;28;20115;-76
2021/03/26 11:01:44;;;;;;;8.73;5.10;;;23.20;27.80;;;;;;5034555;28;20044;-76
2021/03/26 11:04:30;;;;;;;9.07;4.68;;;23.20;28.40;;;;;;5042768;28;20033;-70
2021/03/26 11:07:07;;;;;;;8.27;4.32;;;23.20;28.40;;;;;;5036067;28;20017;-66
2021/03/26 11:09:49;;;;;;;6.63;3.80;;;23.40;28.30;;;;;;5044726;28;20546;-67
2021/03/26 11:12:38;;;;;;;8.48;5.63;;;23.30;28.00;;;;;;5030923;28;20425;-71
2021/03/26 11:15:33;;;;;;;8.90;5.03;;;23.20;28.10;;;;;;5024557;28;20068;-69
2021/03/26 11:18:14;;;;;;;;;;;23.00;28.30;;;;;;5030995;28;20041;-70
2021/03/26 11:20:52;;;;;;;7.70;4.53;;;23.30;28.80;;;;;;5031424;28;20271;-70
2021/03/26 11:23:58;;;;;;;8.88;4.18;;;23.20;28.60;;;;;;5044826;28;20022;-70
2021/03/26 11:26:33;;;;;;;11.23;4.28;;;23.10;28.50;;;;;;5035412;28;20045;-70
2021/03/26 11:29:26;;;;;;;7.78;3.97;;;22.80;28.70;;;;;;5039582;28;20034;-77
2021/03/26 11:31:59;;;;;;;7.25;3.97;;;23.00;28.80;;;;;;5028728;28;20033;-74
2021/03/26 11:34:28;;;;;;;6.75;3.75;;;23.10;28.80;;;;;;5030637;28;20095;-73
2021/03/26 11:37:13;;;;;;;8.68;4.50;;;23.00;28.60;;;;;;5027310;28;20426;-72
2021/03/26 11:40:17;;;;;;;8.35;3.92;;;23.20;29.00;;;;;;5045583;28;20045;-72
2021/03/26 11:42:55;;;;;;;6.03;3.60;;;23.10;28.70;;;;;;5009057;28;20029;-72
2021/03/26 11:45:54;;;;;;;8.63;3.83;;;23.10;28.60;;;;;;5042687;28;20029;-72
2021/03/26 11:48:58;;;;;;;6.60;4.00;;;23.10;28.60;;;;;;5030441;28;20040;-71
2021/03/26 11:51:34;;;;;;;9.30;3.97;;;23.00;28.50;;;;;;5031841;28;20079;-71
2021/03/26 11:54:32;;;;;;;7.43;3.60;;;22.80;28.50;;;;;;5031987;28;20040;-71
2021/03/26 11:57:26;;;;;;;6.57;3.05;;;22.50;28.40;;;;;;5025808;28;20037;-70
2021/03/26 12:00:13;;;;;;;9.85;2.95;;;22.20;28.80;;;;;;5031879;28;20025;-73
2021/03/26 12:02:57;;;;;;;6.88;2.92;;;22.10;28.90;;;;;;5032544;28;20366;-70
2021/03/26 12:05:46;;;;;;;6.27;2.90;;;21.70;28.90;;;;;;5031068;28;20029;-70
2021/03/26 12:08:55;;;;;;;6.47;3.28;;;21.30;29.00;;;;;;5032250;28;20383;-71
2021/03/26 12:11:39;;;;;;;6.50;3.85;;;20.70;29.30;;;;;;5032420;28;20024;-71
2021/03/26 12:14:26;;;;;;;6.20;3.03;;;20.30;29.70;;;;;;5032443;28;20041;-71
2021/03/26 12:17:05;;;;;;;5.55;2.97;;;19.90;29.80;;;;;;5031035;28;20037;-74
2021/03/26 12:19:41;;;;;;;8.10;3.50;;;19.30;30.00;;;;;;5032609;28;20030;-73
2021/03/26 12:22:30;;;;;;;8.90;3.00;;;18.90;30.40;;;;;;5031505;28;20033;-71
2021/03/26 12:25:11;;;;;;;5.38;2.95;;;18.50;31.00;;;;;;5031758;28;20029;-71
2021/03/26 12:27:37;;;;;;;7.10;3.60;;;18.00;31.30;;;;;;5032585;28;20025;-70
2021/03/26 12:30:06;;;;;;;6.43;3.00;;;17.60;31.60;;;;;;5032066;28;20025;-71
2021/03/26 12:32:39;;;;;;;6.40;3.25;;;17.20;31.90;;;;;;5031476;28;20037;-73
2021/03/26 12:35:25;;;;;;;7.30;2.85;;;16.80;32.50;;;;;;5032045;28;20084;-72
2021/03/26 12:38:13;;;;;;;10.02;3.33;;;16.50;33.10;;;;;;5032866;28;20053;-72
2021/03/26 12:40:39;;;;;;;4.78;2.72;;;16.30;33.60;;;;;;5032840;28;20026;-71
2021/03/26 12:43:27;;;;;;;8.93;3.28;;;16.20;33.60;;;;;;5031934;28;20499;-71
2021/03/26 12:46:01;;;;;;;7.05;3.47;;;16.00;34.20;;;;;;5036456;28;20022;-71
2021/03/26 12:48:41;;;;;;;5.45;3.10;;;15.70;34.70;;;;;;5036935;28;20037;-70
2021/03/26 12:51:30;;;;;;;7.30;3.35;;;15.60;35.20;;;;;;5036263;28;20044;-72
2021/03/26 12:54:01;;;;;;;5.70;3.60;;;15.40;35.20;;;;;;5036794;28;20021;-72
2021/03/26 12:56:39;;;;;;;6.00;3.40;;;15.20;35.50;;;;;;5032062;28;20025;-72
2021/03/26 12:59:34;;;;;;;6.72;3.40;;;15.10;35.90;;;;;;5030542;28;20120;-72
2021/03/26 13:02:20;;;;;;;8.80;4.03;;;15.00;36.30;;;;;;5037361;28;20073;-71
2021/03/26 13:05:12;;;;;;;7.72;3.80;;;14.90;36.40;;;;;;5043888;28;20034;-71
2021/03/26 13:08:05;;;;;;;7.30;4.22;;;14.90;36.80;;;;;;5034614;28;20041;-72
2021/03/26 13:10:46;;;;;;;5.82;3.70;;;14.80;37.00;;;;;;5035873;28;20033;-71
2021/03/26 13:13:36;;;;;;;7.60;4.30;;;14.70;37.30;;;;;;5037125;28;20568;-71
2021/03/26 13:16:23;;;;;;;14.90;4.68;;;14.60;37.70;;;;;;5036673;28;20048;-71
2021/03/26 13:18:54;;;;;;;10.15;4.40;;;14.50;37.90;;;;;;5024223;28;20052;-71
2021/03/26 13:21:49;;;;;;;8.85;4.30;;;14.50;38.10;;;;;;5033778;28;20017;-72
2021/03/26 13:24:29;;;;;;;9.27;4.38;;;14.40;38.30;;;;;;5034591;28;20025;-71
2021/03/26 13:27:20;;;;;;;9.75;4.85;;;14.30;38.50;;;;;;5034805;28;20024;-71
2021/03/26 13:30:14;;;;;;;7.32;4.00;;;14.20;38.90;;;;;;5034872;28;20435;-71
2021/03/26 13:32:45;;;;;;;7.95;4.40;;;14.10;39.00;;;;;;5035382;28;20029;-72
2021/03/26 13:35:41;;;;;;;8.43;4.60;;;14.10;39.20;;;;;;5035093;28;20025;-71
2021/03/26 13:38:31;;;;;;;6.90;4.28;;;14.00;39.20;;;;;;5035467;28;20053;-72
2021/03/26 13:41:08;;;;;;;9.10;4.97;;;14.00;39.20;;;;;;5033816;28;20030;-72
2021/03/26 13:44:05;;;;;;;8.35;4.88;;;14.00;39.30;;;;;;5033852;28;20047;-72
2021/03/26 13:46:39;;;;;;;7.03;4.35;;;14.00;39.40;;;;;;5022277;28;20025;-72
2021/03/26 13:49:23;;;;;;;9.75;4.72;;;13.90;39.10;;;;;;5033351;28;20034;-72
2021/03/26 13:52:09;;;;;;;8.63;4.53;;;13.80;38.90;;;;;;5035183;28;20021;-70